KABQ/ABQ METAR and TAF weather

Enter ICAO airport designator
Station Type Date Time Source
KABQ METAR 2020/11/28 19:52 UTC NOAA

KABQ 281952Z 32014KT 10SM SCT046 08/M06 A3019 RMK AO2 SLP211 MTN TOP OBSC NE T00831056


Station Type Date Time Source
KABQ Decoded METAR 2020/11/28 19:52 UTC NOAA

ALBUQUERQUE INTERNATIONAL AIRPORT, NM, United States (KABQ) 35-02N 106-36W 1618M
Nov 28, 2020 - 02:52 PM EST / 2020.11.28 1952 UTC
Wind: from the NW (320 degrees) at 16 MPH (14 KT):0
Visibility: 10 mile(s):0
Sky conditions: partly cloudy
Temperature: 46.9 F (8.3 C)
Dew Point: 21.9 F (-5.6 C)
Relative Humidity: 36%
Pressure (altimeter): 30.19 in. Hg (1022 hPa)
ob: KABQ 281952Z 32014KT 10SM SCT046 08/M06 A3019 RMK AO2 SLP211 MTN TOP OBSC NE T00831056
cycle: 20

Station Type Date Time Source
KABQ TAF 2020/11/28 20:58 UTC NOAA

TAF
AMD KABQ 281956Z 2820/2918 31012G18KT P6SM SCT035 SCT050
FM290200 35006KT P6SM FEW040
FM291600 07012KT P6SM FEW050

Example: see airport list